Terminal Aerodrome Forecast
Issued by NWS

Home | Current Version | Previous Version | Text Only | Print | Product List | Glossary On
Versions: 1 2 3 4 5 6 7 8 9 10 11 12 13 14 15 16 17 18 19
000
FTUS43 KAPX 251720
TAFAPN
TAF
KAPN 251720Z 2518/2618 13009KT P6SM FEW050 SCT250
     FM260200 16006KT P6SM SCT250
     FM260600 20006KT P6SM BKN250 WS020/22030KT
     FM261300 21008KT P6SM VCSH OVC100=

USA.gov is the U.S. government's official web portal to all federal, state and local government web resources and services.